Dubrovnik, Croatia

05:11 AM CEST on Rujan 30, 2016 (GMT +0200)
Cilipi | | Change Station

Elev 541 ft 42.56 °N, 18.27 °E | Updated 11 minutes ago

Clear
Vedro
55 °F
Feels Like 55 °F
S
5
Vjetar Varijabla smjera vjetra Vjetar from ISI

Danas
High -- | Low -- °F
--% Chance of Precip.
Jučer
High -- | Low -- °F
Precip. -- u
Pritisak 30.18 u
Vidljivost -9999.0 milja
Oblaci
Točka rose 48 °F
Vlažnost 77%
Kiša 0.00 u
Visina snijega Not available.
6:43 AM 6:29 PM
Mlađak, 1% visible
METAR LDDU 300300Z 07004KT CAVOK 13/09 Q1022 NOSIG
Pritisak 30.18 u
Vidljivost -9999.0 milja
Oblaci
Točka rose 48 °F
Vlažnost 77%
Kiša 0.00 u
Visina snijega Not available.
6:43 AM 6:29 PM
Mlađak, 1% visible
METAR LDDU 300300Z 07004KT CAVOK 13/09 Q1022 NOSIG

10-Day Weather Forecast

×

Almanac

Astronomija

Sep. 30, 2016 Izlazak Zalazak
Trenutno vrijeme
Civilni sumrak
Nautički sumrak
Astronomski sumrak
Moon
Duljina trajanja vidljive svjetlosti
Duljina dana
Tomorrow will be .
, % of the Moon is Illuminated

Današnji ekstremi

Country Highs Country Lows

Community

WunderPhotos

Upload Photos

1,942,649 photos uploaded!

WunderBlog® & News

Nearby

Kvalitet zraka

  Kvalitet zraka AQ Index Zagadjenje
Not available.

Visina snijega

Station Depth Visina

Earthquake Activity

Grad Distance Mag. Time & Date
Minimum magnitude displayed is 2.5.

Coastal Water Temperatures

Mjesto Temperatura

Stations

Nearby Weather Stations

Lokacija stanice Temp. Subjektivni osjećaj Točka rose Vlažnost Vjetar Precip. Elev Ažurirano Tip